Alaska — SYDS — position and weather

sailwx.info

Track history (hours):
 
Tides and Currents Weather Stations Pressure Air Temp Water Temp Dewpoint Dewpoint Depression Visibility Wind Speed Wind Dir Waves Ship Positions

Alaska

Last reported at 2016-May-21 09:34 UTC. Time now 2016-Jun-29 22:01 UTC.
Position N 37°44' W 073°23'.
Warning: this ship's position is 39 days out of date.

Length 274 m; draft 9.5 m.

Type: Other ship. MMSI: 240472000.

Date/timePositionNaut miles runAvg speedWind from/ knotsBaromVisibWave heightAir tempDewpointWater temp
2016-May-21 09:34N 37°44' W 073°23'1413.9
2016-May-21 08:33N 37°50' W 073°38'1413.9
2016-May-21 07:34N 37°57' W 073°54'1413.8
2016-May-21 06:33N 38°04' W 074°09'1313.5
2016-May-21 05:33N 38°11' W 074°24'6 5.7
2016-May-21 04:33N 38°14' W 074°30'0 0.2
2016-May-21 03:32N 38°14' W 074°30'0 0.0
2016-May-21 02:32N 38°14' W 074°30'0 0.0
2016-May-21 01:32N 38°14' W 074°30'0 0.0
2016-May-21 00:32N 38°14' W 074°30'0 0.0
2016-May-20 23:23N 38°14' W 074°30'0 0.0
2016-May-20 22:32N 38°14' W 074°30'0 0.0
2016-May-20 12:32N 38°14' W 074°30'0 0.0
2016-May-20 11:32N 38°14' W 074°30'0 0.0
2016-May-20 10:29N 38°14' W 074°30'0 0.2
2016-May-20 09:30N 38°14' W 074°30'18 9.5
2016-May-20 07:33N 38°28' W 074°45'1414.4
2016-May-20 06:33N 38°40' W 074°55'1413.5
2016-May-20 05:34N 38°51' W 075°04'1615.9
2016-May-20 04:34N 39°06' W 075°12'1515.4
2016-May-20 03:33N 39°19' W 075°24'1313.3
2016-May-20 02:33N 39°30' W 075°34'1110.7
2016-May-20 01:33N 39°40' W 075°32'1010.0
2016-May-20 00:33N 39°48' W 075°25'1 0.7
2016-May-19 23:31N 39°49' W 075°24'0 0.0
2016-May-19 22:31N 39°49' W 075°24'0 0.0
2016-May-19 21:31N 39°49' W 075°24'0 0.0
2016-May-19 20:31N 39°49' W 075°24'0 0.0
2016-May-19 19:31N 39°49' W 075°24'0 0.1
2016-May-19 18:31N 39°49' W 075°24'0 0.3
2016-May-19 17:31N 39°49' W 075°23'0 0.0
2016-May-19 16:31N 39°49' W 075°23'0 0.0
2016-May-19 15:31N 39°49' W 075°23'0 0.0
2016-May-19 14:31N 39°49' W 075°23'0 0.0
2016-May-19 13:31N 39°49' W 075°23'0 0.0
2016-May-19 12:31N 39°49' W 075°23'0 0.3
2016-May-19 11:31N 39°49' W 075°24'0 0.0
2016-May-19 10:31N 39°49' W 075°24'0 0.0
2016-May-19 09:31N 39°49' W 075°24'1 0.8
2016-May-19 08:33N 39°48' W 075°25'6 6.4
2016-May-19 07:33N 39°51' W 075°17'3 3.1
2016-May-19 06:31N 39°52' W 075°13'0 0.0
2016-May-19 05:31N 39°52' W 075°13'0 0.0
2016-May-19 04:31N 39°52' W 075°13'0 0.0
2016-May-19 03:31N 39°52' W 075°13'0 0.0
2016-May-19 02:31N 39°52' W 075°13'0 0.0
2016-May-19 01:31N 39°52' W 075°13'0 0.0
2016-May-19 00:31N 39°52' W 075°13'0 0.0
2016-May-18 23:31N 39°52' W 075°13'0 0.0
2016-May-18 22:31N 39°52' W 075°13'0 0.0
2016-May-18 21:31N 39°52' W 075°13'0 0.0
2016-May-18 20:31N 39°52' W 075°13'0 0.0
2016-May-18 19:22N 39°52' W 075°13'0 0.0
2016-May-18 18:31N 39°52' W 075°13'0 0.0
2016-May-18 17:31N 39°52' W 075°13'0 0.0
2016-May-18 16:31N 39°52' W 075°13'0 0.0
2016-May-18 15:25N 39°52' W 075°13'0 0.0
2016-May-18 14:31N 39°52' W 075°13'0 0.0
2016-May-18 13:33N 39°52' W 075°13'0 0.0
2016-May-18 12:33N 39°52' W 075°13'0 0.0
2016-May-18 11:34N 39°52' W 075°13'0 0.0
2016-May-18 10:31N 39°52' W 075°13'0 0.0
2016-May-18 09:31N 39°52' W 075°13'0 0.0
2016-May-18 08:31N 39°52' W 075°13'0 0.0
2016-May-18 07:31N 39°52' W 075°13'0 0.0
2016-May-18 06:31N 39°52' W 075°13'0 0.0
2016-May-18 05:31N 39°52' W 075°13'0 0.0
2016-May-18 04:31N 39°52' W 075°13'0 0.0
2016-May-18 03:31N 39°52' W 075°13'0 0.0
2016-May-18 02:31N 39°52' W 075°13'0 0.0
2016-May-18 01:31N 39°52' W 075°13'0 0.0
2016-May-18 00:31N 39°52' W 075°13'0 0.0
2016-May-17 23:31N 39°52' W 075°13'0 0.0
2016-May-17 22:31N 39°52' W 075°13'0 0.0
2016-May-17 21:33N 39°52' W 075°13'0 0.0
2016-May-17 20:28N 39°52' W 075°13'0 0.0
2016-May-17 19:31N 39°52' W 075°13'0 0.0
2016-May-17 18:31N 39°52' W 075°13'0 0.0
2016-May-17 17:31N 39°52' W 075°13'0 0.0
2016-May-17 16:31N 39°52' W 075°13'0 0.0
2016-May-17 15:28N 39°52' W 075°13'0 0.0
2016-May-17 14:34N 39°52' W 075°13'0 0.0
2016-May-17 13:33N 39°52' W 075°13'2 2.4
2016-May-17 12:33N 39°51' W 075°16'9 8.6
2016-May-17 11:33N 39°48' W 075°26'9 9.2
2016-May-17 10:33N 39°40' W 075°32'9 9.3
2016-May-17 09:33N 39°30' W 075°33'1110.9
2016-May-17 08:33N 39°21' W 075°26'1111.2
2016-May-17 07:33N 39°12' W 075°17'1211.6
2016-May-17 06:33N 39°02' W 075°10'9 9.0
2016-May-17 05:33N 38°53' W 075°08'2 2.2
2016-May-17 04:31N 38°55' W 075°09'0 0.0
2016-May-17 03:31N 38°55' W 075°09'0 0.0
2016-May-17 02:29N 38°55' W 075°09'0 0.0
2016-May-17 01:28N 38°55' W 075°09'0 0.1
2016-May-17 00:32N 38°55' W 075°09'0 0.2
2016-May-16 23:31N 38°56' W 075°09'0 0.1
2016-May-16 21:16N 38°55' W 075°10'0 0.1
2016-May-16 19:22N 38°55' W 075°09'0 0.2
2016-May-16 18:31N 38°55' W 075°09'0 0.1
2016-May-16 17:33N 38°55' W 075°09'0 0.0
2016-May-16 16:32N 38°55' W 075°09'0 0.0
2016-May-16 15:32N 38°55' W 075°09'0 0.0
2016-May-16 14:32N 38°55' W 075°09'0 0.0
2016-May-16 13:32N 38°55' W 075°09'0 0.1
2016-May-16 12:28N 38°55' W 075°09'0 0.3
2016-May-16 11:31N 38°55' W 075°09'0 0.0
2016-May-16 08:25N 38°56' W 075°09'0 0.0
2016-May-16 07:08N 38°56' W 075°09'0 0.3
2016-May-16 06:25N 38°55' W 075°10'0 0.2
2016-May-16 05:31N 38°55' W 075°09'0 0.0
2016-May-16 04:31N 38°55' W 075°09'0 0.0
2016-May-16 03:25N 38°55' W 075°09'0 0.0
2016-May-16 02:22N 38°55' W 075°09'0 0.1
2016-May-16 01:31N 38°55' W 075°09'0 0.1
2016-May-16 00:31N 38°55' W 075°09'0 0.1
2016-May-15 23:30N 38°55' W 075°09'0 0.1
2016-May-15 22:10N 38°55' W 075°09'0 0.2
2016-May-15 21:25N 38°56' W 075°09'0 0.0
2016-May-15 18:28N 38°56' W 075°09'0 0.3
2016-May-15 17:31N 38°55' W 075°09'0 0.1
2016-May-15 16:31N 38°55' W 075°09'0 0.0
2016-May-15 15:32N 38°55' W 075°09'0 0.0
2016-May-15 14:31N 38°55' W 075°09'0 0.0
2016-May-15 13:28N 38°55' W 075°09'0 0.1
2016-May-15 12:31N 38°55' W 075°09'0 0.1
2016-May-15 11:31N 38°55' W 075°09'0 0.1
2016-May-15 10:25N 38°55' W 075°09'0 0.2
2016-May-15 09:28N 38°56' W 075°09'0 0.0
2016-May-15 07:25N 38°56' W 075°09'0 0.0
2016-May-15 06:16N 38°56' W 075°09'0 0.2
2016-May-15 05:25N 38°55' W 075°09'0 0.2
2016-May-15 04:31N 38°55' W 075°09'0 0.0
2016-May-15 03:31N 38°55' W 075°09'0 0.0
2016-May-15 02:31N 38°55' W 075°09'0 0.0
2016-May-15 01:31N 38°55' W 075°09'0 0.0
2016-May-15 00:31N 38°55' W 075°09'0 0.0
2016-May-14 23:31N 38°55' W 075°09'0 0.1
2016-May-14 22:31N 38°55' W 075°09'0 0.3
2016-May-14 21:28N 38°56' W 075°09'0 0.1
2016-May-14 20:13N 38°56' W 075°09'0 0.1
2016-May-14 15:31N 38°55' W 075°09'0 0.0
2016-May-14 14:31N 38°55' W 075°09'0 0.0
2016-May-14 13:29N 38°55' W 075°09'0 0.0
2016-May-14 12:33N 38°55' W 075°09'0 0.0
2016-May-14 11:31N 38°55' W 075°09'0 0.0
2016-May-14 10:31N 38°55' W 075°09'0 0.1
2016-May-14 09:31N 38°55' W 075°09'0 0.2
2016-May-14 08:31N 38°56' W 075°09'0 0.1
2016-May-14 07:31N 38°56' W 075°09'0 0.0
2016-May-14 06:31N 38°56' W 075°09'0 0.0
2016-May-14 05:31N 38°56' W 075°10'0 0.1
2016-May-14 04:31N 38°56' W 075°10'0 0.2
2016-May-14 03:30N 38°55' W 075°09'0 0.1
2016-May-14 02:31N 38°55' W 075°09'0 0.0
2016-May-14 01:31N 38°55' W 075°09'0 0.0
2016-May-14 00:28N 38°55' W 075°09'0 0.0
2016-May-13 23:33N 38°55' W 075°09'0 0.0
2016-May-13 22:33N 38°55' W 075°09'0 0.1
2016-May-13 21:33N 38°55' W 075°09'0 0.1
2016-May-13 19:21N 38°56' W 075°09'0 0.0
2016-May-13 18:21N 38°56' W 075°09'0 0.0
2016-May-13 17:13N 38°56' W 075°09'0 0.0
2016-May-13 16:13N 38°56' W 075°09'0 0.3
2016-May-13 15:31N 38°55' W 075°09'0 0.2
2016-May-13 14:31N 38°55' W 075°09'0 0.0
2016-May-13 13:31N 38°55' W 075°09'0 0.0
2016-May-13 12:33N 38°55' W 075°09'0 0.0
2016-May-13 11:28N 38°55' W 075°09'0 0.0
2016-May-13 10:31N 38°55' W 075°09'0 0.0
2016-May-13 09:31N 38°55' W 075°09'0 0.3
2016-May-13 08:31N 38°56' W 075°09'0 0.0
2016-May-13 07:07N 38°56' W 075°09'0 0.0
2016-May-13 06:25N 38°56' W 075°09'0 0.0
2016-May-13 05:31N 38°56' W 075°09'0 0.0
2016-May-13 02:33N 38°55' W 075°10'0 0.3
2016-May-13 01:31N 38°55' W 075°09'0 0.0
2016-May-13 00:31N 38°55' W 075°09'0 0.0
2016-May-12 23:31N 38°55' W 075°09'0 0.0
2016-May-12 22:31N 38°55' W 075°09'0 0.0
2016-May-12 21:31N 38°55' W 075°09'0 0.2
2016-May-12 20:31N 38°56' W 075°09'0 0.0
2016-May-12 15:13N 38°56' W 075°09'0 0.4
2016-May-12 14:31N 38°55' W 075°09'0 0.1
2016-May-12 13:31N 38°55' W 075°09'0 0.0
2016-May-12 12:31N 38°55' W 075°09'0 0.1
2016-May-12 11:31N 38°55' W 075°09'0 0.0
2016-May-12 10:31N 38°55' W 075°09'0 0.0
2016-May-12 09:31N 38°55' W 075°09'0 0.0
2016-May-12 08:31N 38°55' W 075°09'0 0.1
2016-May-12 06:19N 38°56' W 075°10'0 0.0
2016-May-12 05:19N 38°56' W 075°10'0 0.0
2016-May-12 04:31N 38°56' W 075°10'0 0.0
2016-May-12 03:28N 38°56' W 075°10'0 0.1
2016-May-12 02:25N 38°55' W 075°09'0 0.2
2016-May-12 01:19N 38°55' W 075°10'0 0.2
2016-May-12 00:31N 38°55' W 075°09'0 0.1
2016-May-11 23:31N 38°55' W 075°09'0 0.0
2016-May-11 22:31N 38°55' W 075°09'0 0.0
2016-May-11 21:28N 38°55' W 075°09'0 0.0
2016-May-11 20:33N 38°55' W 075°09'0 0.2
2016-May-11 19:31N 38°55' W 075°09'0 0.1
2016-May-11 17:31N 38°56' W 075°09'0 0.0
2016-May-11 16:22N 38°56' W 075°09'0 0.0
2016-May-11 15:31N 38°56' W 075°09'0 0.0
2016-May-11 14:25N 38°56' W 075°09'0 0.3
2016-May-11 13:31N 38°55' W 075°09'0 0.0
2016-May-11 12:31N 38°55' W 075°09'0 0.0
2016-May-11 11:31N 38°55' W 075°09'0 0.0
2016-May-11 10:30N 38°55' W 075°09'  
Track history (hours):
 
Tides and Currents Weather Stations Pressure Air Temp Water Temp Dewpoint Dewpoint Depression Visibility Wind Speed Wind Dir Waves Ship Positions

Alaska

Last reported at 2016-May-21 09:34 UTC. Time now 2016-Jun-29 22:01 UTC.
Position N 37°44' W 073°23'.
Warning: this ship's position is 39 days out of date.

Length 274 m; draft 9.5 m.

Type: Other ship. MMSI: 240472000.

Date/timePositionNaut miles runAvg speedWind from/ knotsBaromVisibWave heightAir tempDewpointWater temp
2016-May-21 09:34N 37°44' W 073°23'1413.9
2016-May-21 08:33N 37°50' W 073°38'1413.9
2016-May-21 07:34N 37°57' W 073°54'1413.8
2016-May-21 06:33N 38°04' W 074°09'1313.5
2016-May-21 05:33N 38°11' W 074°24'6 5.7
2016-May-21 04:33N 38°14' W 074°30'0 0.2
2016-May-21 03:32N 38°14' W 074°30'0 0.0
2016-May-21 02:32N 38°14' W 074°30'0 0.0
2016-May-21 01:32N 38°14' W 074°30'0 0.0
2016-May-21 00:32N 38°14' W 074°30'0 0.0
2016-May-20 23:23N 38°14' W 074°30'0 0.0
2016-May-20 22:32N 38°14' W 074°30'0 0.0
2016-May-20 12:32N 38°14' W 074°30'0 0.0
2016-May-20 11:32N 38°14' W 074°30'0 0.0
2016-May-20 10:29N 38°14' W 074°30'0 0.2
2016-May-20 09:30N 38°14' W 074°30'18 9.5
2016-May-20 07:33N 38°28' W 074°45'1414.4
2016-May-20 06:33N 38°40' W 074°55'1413.5
2016-May-20 05:34N 38°51' W 075°04'1615.9
2016-May-20 04:34N 39°06' W 075°12'1515.4
2016-May-20 03:33N 39°19' W 075°24'1313.3
2016-May-20 02:33N 39°30' W 075°34'1110.7
2016-May-20 01:33N 39°40' W 075°32'1010.0
2016-May-20 00:33N 39°48' W 075°25'1 0.7
2016-May-19 23:31N 39°49' W 075°24'0 0.0
2016-May-19 22:31N 39°49' W 075°24'0 0.0
2016-May-19 21:31N 39°49' W 075°24'0 0.0
2016-May-19 20:31N 39°49' W 075°24'0 0.0
2016-May-19 19:31N 39°49' W 075°24'0 0.1
2016-May-19 18:31N 39°49' W 075°24'0 0.3
2016-May-19 17:31N 39°49' W 075°23'0 0.0
2016-May-19 16:31N 39°49' W 075°23'0 0.0
2016-May-19 15:31N 39°49' W 075°23'0 0.0
2016-May-19 14:31N 39°49' W 075°23'0 0.0
2016-May-19 13:31N 39°49' W 075°23'0 0.0
2016-May-19 12:31N 39°49' W 075°23'0 0.3
2016-May-19 11:31N 39°49' W 075°24'0 0.0
2016-May-19 10:31N 39°49' W 075°24'0 0.0
2016-May-19 09:31N 39°49' W 075°24'1 0.8
2016-May-19 08:33N 39°48' W 075°25'6 6.4
2016-May-19 07:33N 39°51' W 075°17'3 3.1
2016-May-19 06:31N 39°52' W 075°13'0 0.0
2016-May-19 05:31N 39°52' W 075°13'0 0.0
2016-May-19 04:31N 39°52' W 075°13'0 0.0
2016-May-19 03:31N 39°52' W 075°13'0 0.0
2016-May-19 02:31N 39°52' W 075°13'0 0.0
2016-May-19 01:31N 39°52' W 075°13'0 0.0
2016-May-19 00:31N 39°52' W 075°13'0 0.0
2016-May-18 23:31N 39°52' W 075°13'0 0.0
2016-May-18 22:31N 39°52' W 075°13'0 0.0
2016-May-18 21:31N 39°52' W 075°13'0 0.0
2016-May-18 20:31N 39°52' W 075°13'0 0.0
2016-May-18 19:22N 39°52' W 075°13'0 0.0
2016-May-18 18:31N 39°52' W 075°13'0 0.0
2016-May-18 17:31N 39°52' W 075°13'0 0.0
2016-May-18 16:31N 39°52' W 075°13'0 0.0
2016-May-18 15:25N 39°52' W 075°13'0 0.0
2016-May-18 14:31N 39°52' W 075°13'0 0.0
2016-May-18 13:33N 39°52' W 075°13'0 0.0
2016-May-18 12:33N 39°52' W 075°13'0 0.0
2016-May-18 11:34N 39°52' W 075°13'0 0.0
2016-May-18 10:31N 39°52' W 075°13'0 0.0
2016-May-18 09:31N 39°52' W 075°13'0 0.0
2016-May-18 08:31N 39°52' W 075°13'0 0.0
2016-May-18 07:31N 39°52' W 075°13'0 0.0
2016-May-18 06:31N 39°52' W 075°13'0 0.0
2016-May-18 05:31N 39°52' W 075°13'0 0.0
2016-May-18 04:31N 39°52' W 075°13'0 0.0
2016-May-18 03:31N 39°52' W 075°13'0 0.0
2016-May-18 02:31N 39°52' W 075°13'0 0.0
2016-May-18 01:31N 39°52' W 075°13'0 0.0
2016-May-18 00:31N 39°52' W 075°13'0 0.0
2016-May-17 23:31N 39°52' W 075°13'0 0.0
2016-May-17 22:31N 39°52' W 075°13'0 0.0
2016-May-17 21:33N 39°52' W 075°13'0 0.0
2016-May-17 20:28N 39°52' W 075°13'0 0.0
2016-May-17 19:31N 39°52' W 075°13'0 0.0
2016-May-17 18:31N 39°52' W 075°13'0 0.0
2016-May-17 17:31N 39°52' W 075°13'0 0.0
2016-May-17 16:31N 39°52' W 075°13'0 0.0
2016-May-17 15:28N 39°52' W 075°13'0 0.0
2016-May-17 14:34N 39°52' W 075°13'0 0.0
2016-May-17 13:33N 39°52' W 075°13'2 2.4
2016-May-17 12:33N 39°51' W 075°16'9 8.6
2016-May-17 11:33N 39°48' W 075°26'9 9.2
2016-May-17 10:33N 39°40' W 075°32'9 9.3
2016-May-17 09:33N 39°30' W 075°33'1110.9
2016-May-17 08:33N 39°21' W 075°26'1111.2
2016-May-17 07:33N 39°12' W 075°17'1211.6
2016-May-17 06:33N 39°02' W 075°10'9 9.0
2016-May-17 05:33N 38°53' W 075°08'2 2.2
2016-May-17 04:31N 38°55' W 075°09'0 0.0
2016-May-17 03:31N 38°55' W 075°09'0 0.0
2016-May-17 02:29N 38°55' W 075°09'0 0.0
2016-May-17 01:28N 38°55' W 075°09'0 0.1
2016-May-17 00:32N 38°55' W 075°09'0 0.2
2016-May-16 23:31N 38°56' W 075°09'0 0.1
2016-May-16 21:16N 38°55' W 075°10'0 0.1
2016-May-16 19:22N 38°55' W 075°09'0 0.2
2016-May-16 18:31N 38°55' W 075°09'0 0.1
2016-May-16 17:33N 38°55' W 075°09'0 0.0
2016-May-16 16:32N 38°55' W 075°09'0 0.0
2016-May-16 15:32N 38°55' W 075°09'0 0.0
2016-May-16 14:32N 38°55' W 075°09'0 0.0
2016-May-16 13:32N 38°55' W 075°09'0 0.1
2016-May-16 12:28N 38°55' W 075°09'0 0.3
2016-May-16 11:31N 38°55' W 075°09'0 0.0
2016-May-16 08:25N 38°56' W 075°09'0 0.0
2016-May-16 07:08N 38°56' W 075°09'0 0.3
2016-May-16 06:25N 38°55' W 075°10'0 0.2
2016-May-16 05:31N 38°55' W 075°09'0 0.0
2016-May-16 04:31N 38°55' W 075°09'0 0.0
2016-May-16 03:25N 38°55' W 075°09'0 0.0
2016-May-16 02:22N 38°55' W 075°09'0 0.1
2016-May-16 01:31N 38°55' W 075°09'0 0.1
2016-May-16 00:31N 38°55' W 075°09'0 0.1
2016-May-15 23:30N 38°55' W 075°09'0 0.1
2016-May-15 22:10N 38°55' W 075°09'0 0.2
2016-May-15 21:25N 38°56' W 075°09'0 0.0
2016-May-15 18:28N 38°56' W 075°09'0 0.3
2016-May-15 17:31N 38°55' W 075°09'0 0.1
2016-May-15 16:31N 38°55' W 075°09'0 0.0
2016-May-15 15:32N 38°55' W 075°09'0 0.0
2016-May-15 14:31N 38°55' W 075°09'0 0.0
2016-May-15 13:28N 38°55' W 075°09'0 0.1
2016-May-15 12:31N 38°55' W 075°09'0 0.1
2016-May-15 11:31N 38°55' W 075°09'0 0.1
2016-May-15 10:25N 38°55' W 075°09'0 0.2
2016-May-15 09:28N 38°56' W 075°09'0 0.0
2016-May-15 07:25N 38°56' W 075°09'0 0.0
2016-May-15 06:16N 38°56' W 075°09'0 0.2
2016-May-15 05:25N 38°55' W 075°09'0 0.2
2016-May-15 04:31N 38°55' W 075°09'0 0.0
2016-May-15 03:31N 38°55' W 075°09'0 0.0
2016-May-15 02:31N 38°55' W 075°09'0 0.0
2016-May-15 01:31N 38°55' W 075°09'0 0.0
2016-May-15 00:31N 38°55' W 075°09'0 0.0
2016-May-14 23:31N 38°55' W 075°09'0 0.1
2016-May-14 22:31N 38°55' W 075°09'0 0.3
2016-May-14 21:28N 38°56' W 075°09'0 0.1
2016-May-14 20:13N 38°56' W 075°09'0 0.1
2016-May-14 15:31N 38°55' W 075°09'0 0.0
2016-May-14 14:31N 38°55' W 075°09'0 0.0
2016-May-14 13:29N 38°55' W 075°09'0 0.0
2016-May-14 12:33N 38°55' W 075°09'0 0.0
2016-May-14 11:31N 38°55' W 075°09'0 0.0
2016-May-14 10:31N 38°55' W 075°09'0 0.1
2016-May-14 09:31N 38°55' W 075°09'0 0.2
2016-May-14 08:31N 38°56' W 075°09'0 0.1
2016-May-14 07:31N 38°56' W 075°09'0 0.0
2016-May-14 06:31N 38°56' W 075°09'0 0.0
2016-May-14 05:31N 38°56' W 075°10'0 0.1
2016-May-14 04:31N 38°56' W 075°10'0 0.2
2016-May-14 03:30N 38°55' W 075°09'0 0.1
2016-May-14 02:31N 38°55' W 075°09'0 0.0
2016-May-14 01:31N 38°55' W 075°09'0 0.0
2016-May-14 00:28N 38°55' W 075°09'0 0.0
2016-May-13 23:33N 38°55' W 075°09'0 0.0
2016-May-13 22:33N 38°55' W 075°09'0 0.1
2016-May-13 21:33N 38°55' W 075°09'0 0.1
2016-May-13 19:21N 38°56' W 075°09'0 0.0
2016-May-13 18:21N 38°56' W 075°09'0 0.0
2016-May-13 17:13N 38°56' W 075°09'0 0.0
2016-May-13 16:13N 38°56' W 075°09'0 0.3
2016-May-13 15:31N 38°55' W 075°09'0 0.2
2016-May-13 14:31N 38°55' W 075°09'0 0.0
2016-May-13 13:31N 38°55' W 075°09'0 0.0
2016-May-13 12:33N 38°55' W 075°09'0 0.0
2016-May-13 11:28N 38°55' W 075°09'0 0.0
2016-May-13 10:31N 38°55' W 075°09'0 0.0
2016-May-13 09:31N 38°55' W 075°09'0 0.3
2016-May-13 08:31N 38°56' W 075°09'0 0.0
2016-May-13 07:07N 38°56' W 075°09'0 0.0
2016-May-13 06:25N 38°56' W 075°09'0 0.0
2016-May-13 05:31N 38°56' W 075°09'0 0.0
2016-May-13 02:33N 38°55' W 075°10'0 0.3
2016-May-13 01:31N 38°55' W 075°09'0 0.0
2016-May-13 00:31N 38°55' W 075°09'0 0.0
2016-May-12 23:31N 38°55' W 075°09'0 0.0
2016-May-12 22:31N 38°55' W 075°09'0 0.0
2016-May-12 21:31N 38°55' W 075°09'0 0.2
2016-May-12 20:31N 38°56' W 075°09'0 0.0
2016-May-12 15:13N 38°56' W 075°09'0 0.4
2016-May-12 14:31N 38°55' W 075°09'0 0.1
2016-May-12 13:31N 38°55' W 075°09'0 0.0
2016-May-12 12:31N 38°55' W 075°09'0 0.1
2016-May-12 11:31N 38°55' W 075°09'0 0.0
2016-May-12 10:31N 38°55' W 075°09'0 0.0
2016-May-12 09:31N 38°55' W 075°09'0 0.0
2016-May-12 08:31N 38°55' W 075°09'0 0.1
2016-May-12 06:19N 38°56' W 075°10'0 0.0
2016-May-12 05:19N 38°56' W 075°10'0 0.0
2016-May-12 04:31N 38°56' W 075°10'0 0.0
2016-May-12 03:28N 38°56' W 075°10'0 0.1
2016-May-12 02:25N 38°55' W 075°09'0 0.2
2016-May-12 01:19N 38°55' W 075°10'0 0.2
2016-May-12 00:31N 38°55' W 075°09'0 0.1
2016-May-11 23:31N 38°55' W 075°09'0 0.0
2016-May-11 22:31N 38°55' W 075°09'0 0.0
2016-May-11 21:28N 38°55' W 075°09'0 0.0
2016-May-11 20:33N 38°55' W 075°09'0 0.2
2016-May-11 19:31N 38°55' W 075°09'0 0.1
2016-May-11 17:31N 38°56' W 075°09'0 0.0
2016-May-11 16:22N 38°56' W 075°09'0 0.0
2016-May-11 15:31N 38°56' W 075°09'0 0.0
2016-May-11 14:25N 38°56' W 075°09'0 0.3
2016-May-11 13:31N 38°55' W 075°09'0 0.0
2016-May-11 12:31N 38°55' W 075°09'0 0.0
2016-May-11 11:31N 38°55' W 075°09'0 0.0
2016-May-11 10:30N 38°55' W 075°09'  

Dump ship's entire track history